OIAI  Shahid Asyaee  Airport

Iran

Add Bookmark
ICAO OIAI
Type Airport
Status Operational
Latitude
32° 0' 8" N
32.002399
Longitude
49° 16' 13" E
49.270401
Local (DST + 5) UTC (GMT + 4)
Feb 12, 2016 11:09 Feb 12, 2016 07:39
Sunrise-Sunset Local UTC
Begin Civil Twilight 06:31 03:01
Sunrise 06:56 03:26
Sunset 05:57 14:27
End Civil Twilight 06:22 14:52
VFR
VFR
MVFR
MVFR
IFR
IFR
LIFR
LIFR
Unknown
Unavailable

Current Weather

METAR Observed VFR
OIAI 120700Z 33004KT CAVOK 13/08 Q1019 Fri, Feb 12, 2016 @ 07:00 UTC
(39 Minutes ago)
Visual Flight Rules
Wind Visibility Conditions
330° at 4 knots (7 kph) 10 km or more
  • No significant weather
Temperatures Readings Precipitation
Current Temp
13°C
55°F
Dewpoint
8°C
46°F
Humidity 72%
Altimeter 30.09" Hg
Sea Level Pressure 1,019 mb
Field Elevation
372 m
1,220 ft
None Recorded

Additional weather within a 92.6km radius of OIAI

Map ICAO Location
OIAW 88.2km S/SW (213°)
VFR
VFR
MVFR
MVFR
IFR
IFR
LIFR
LIFR
Unknown
Unavailable
-
-

CheckWX.com is intended as a tool to help pilots better visualize weather data. It is not intended as a substitute for an official weather briefing obtained from a Flight Service Station. CheckWX.com does not meet the FAA requirements for an official pre-flight weather briefing. Therefore, it's important that pilots still call and obtain an official FSS pre-flight weather briefing.

© 2007-2016 CheckWX.com
07:39:30 UTC